createdAt,value
2018-12-08T00:04:00.766Z,3.64
2018-12-08T00:09:10.126Z,2.85
2018-12-08T00:14:19.207Z,4.85
2018-12-08T00:19:28.528Z,3.99
2018-12-08T00:24:37.621Z,4.19
2018-12-08T00:29:46.915Z,4.31
2018-12-08T00:34:56.002Z,3.73
2018-12-08T00:40:05.311Z,4.08
2018-12-08T00:45:14.442Z,4.24
2018-12-08T00:50:23.789Z,3.62
2018-12-08T00:55:32.989Z,3.87
2018-12-08T01:00:42.305Z,4.83
2018-12-08T01:05:51.571Z,4.75
2018-12-08T01:11:01.108Z,2.89
2018-12-08T01:16:10.207Z,4.18
2018-12-08T01:21:19.489Z,5.27
2018-12-08T01:26:28.636Z,3.97
2018-12-08T01:31:37.984Z,3.92
2018-12-08T01:36:47.135Z,4.62
2018-12-08T01:41:56.428Z,5.19
2018-12-08T01:47:05.536Z,4.13
2018-12-08T01:52:14.833Z,3.95
2018-12-08T01:57:24.037Z,4.60
2018-12-08T02:02:33.298Z,4.07
2018-12-08T02:07:42.430Z,4.96
2018-12-08T02:12:51.835Z,5.28
2018-12-08T02:18:01.065Z,5.64
2018-12-08T02:23:10.423Z,4.42
2018-12-08T02:28:19.526Z,4.12
2018-12-08T02:33:28.928Z,4.69
2018-12-08T02:38:38.014Z,6.06
2018-12-08T02:43:47.341Z,6.87
2018-12-08T02:48:56.492Z,6.82
2018-12-08T02:54:05.822Z,4.65
2018-12-08T02:59:15.081Z,4.07
2018-12-08T03:04:24.422Z,5.12
2018-12-08T03:09:33.521Z,4.46
2018-12-08T03:14:42.974Z,4.97
2018-12-08T03:19:52.054Z,4.57
2018-12-08T03:25:01.330Z,5.06
2018-12-08T03:30:10.472Z,4.59
2018-12-08T03:35:19.704Z,5.17
2018-12-08T03:40:28.830Z,5.46
2018-12-08T03:45:38.086Z,6.13
2018-12-08T03:50:47.145Z,5.97
2018-12-08T03:55:56.426Z,4.68
2018-12-08T04:01:05.544Z,5.88
2018-12-08T04:06:14.957Z,4.70
2018-12-08T04:11:24.049Z,5.42
2018-12-08T04:16:33.324Z,4.82
2018-12-08T04:21:42.409Z,6.62
2018-12-08T04:26:51.816Z,5.60
2018-12-08T04:32:00.945Z,6.30
2018-12-08T04:37:10.238Z,4.33
2018-12-08T04:42:19.380Z,5.56
2018-12-08T04:47:28.624Z,6.02
2018-12-08T04:52:37.935Z,5.69
2018-12-08T04:57:47.309Z,5.67
2018-12-08T05:02:56.413Z,5.71
2018-12-08T05:08:05.700Z,6.23
2018-12-08T05:13:14.873Z,6.20
2018-12-08T05:18:24.231Z,5.87
2018-12-08T05:23:33.306Z,5.37
2018-12-08T05:28:42.685Z,5.10
2018-12-08T05:33:51.761Z,5.44
2018-12-08T05:39:01.096Z,5.49
2018-12-08T05:44:10.217Z,5.35
2018-12-08T05:49:19.518Z,7.13
2018-12-08T05:54:28.603Z,5.27
2018-12-08T05:59:38.003Z,5.40
2018-12-08T06:04:47.233Z,7.60
2018-12-08T06:09:56.705Z,5.93
2018-12-08T06:15:05.820Z,5.27
2018-12-08T06:20:15.100Z,5.33
2018-12-08T06:25:24.432Z,4.67
2018-12-08T06:30:33.827Z,6.81
2018-12-08T06:35:42.969Z,5.90
2018-12-08T06:40:52.317Z,6.60
2018-12-08T06:46:01.480Z,5.68
2018-12-08T06:51:10.838Z,4.73
2018-12-08T06:56:19.921Z,6.26
2018-12-08T07:01:29.295Z,5.03
2018-12-08T07:06:38.414Z,5.62
2018-12-08T07:11:47.722Z,5.13
2018-12-08T07:16:56.818Z,5.36
2018-12-08T07:22:06.103Z,5.26
2018-12-08T07:27:15.243Z,4.76
2018-12-08T07:32:24.489Z,6.03
2018-12-08T07:37:33.592Z,6.55
2018-12-08T07:42:42.968Z,5.36
2018-12-08T07:47:52.058Z,4.89
2018-12-08T07:53:01.404Z,5.53
2018-12-08T07:58:10.554Z,5.27
2018-12-08T08:03:20.130Z,5.63
2018-12-08T08:08:29.217Z,4.99
2018-12-08T08:13:38.537Z,5.79
2018-12-08T08:18:47.630Z,6.30
2018-12-08T08:23:57.012Z,5.58
2018-12-08T08:29:06.133Z,4.72
2018-12-08T08:34:15.534Z,5.30
2018-12-08T08:39:24.621Z,5.22
2018-12-08T08:44:33.917Z,4.79
2018-12-08T08:49:43.000Z,4.85
2018-12-08T08:54:52.369Z,5.34
2018-12-08T09:00:01.493Z,6.22
2018-12-08T09:05:10.993Z,6.22
2018-12-08T09:10:20.102Z,5.11
2018-12-08T09:15:29.556Z,4.68
2018-12-08T09:20:38.685Z,5.34
2018-12-08T09:25:47.854Z,4.67
2018-12-08T09:30:56.934Z,4.81
2018-12-08T09:36:06.368Z,4.75
2018-12-08T09:41:15.465Z,4.04
2018-12-08T09:46:24.945Z,4.70
2018-12-08T09:51:34.054Z,4.21
2018-12-08T09:56:43.464Z,4.10
2018-12-08T10:01:52.655Z,5.90
2018-12-08T10:07:01.929Z,4.86
2018-12-08T10:12:11.021Z,4.34
2018-12-08T10:17:20.420Z,4.08
2018-12-08T10:22:29.524Z,4.60
2018-12-08T10:27:38.801Z,5.65
2018-12-08T10:32:48.044Z,4.87
2018-12-08T10:37:57.383Z,5.27
2018-12-08T10:43:06.561Z,3.70
2018-12-08T10:48:15.996Z,4.75
2018-12-08T10:53:25.238Z,4.26
2018-12-08T10:58:34.556Z,5.38
2018-12-08T11:03:43.702Z,4.81
2018-12-08T11:08:53.150Z,4.74
2018-12-08T11:14:02.242Z,4.39
2018-12-08T11:19:11.516Z,3.94
2018-12-08T11:24:20.613Z,4.96
2018-12-08T11:29:30.054Z,5.85
2018-12-08T11:34:39.133Z,4.13
2018-12-08T11:39:48.546Z,4.73
2018-12-08T11:44:57.665Z,4.81
2018-12-08T11:50:07.041Z,3.72
2018-12-08T11:55:16.121Z,4.41
2018-12-08T12:00:25.633Z,4.43
2018-12-08T12:05:34.860Z,4.73
2018-12-08T12:10:44.156Z,4.56
2018-12-08T12:15:53.278Z,4.31
2018-12-08T12:21:06.049Z,3.53
2018-12-08T12:26:05.058Z,3.64
2018-12-08T12:31:14.474Z,4.18
2018-12-08T12:36:23.614Z,3.56
2018-12-08T12:41:33.095Z,4.83
2018-12-08T12:46:42.237Z,4.08
2018-12-08T12:51:51.589Z,4.15
2018-12-08T12:57:00.811Z,3.86
2018-12-08T13:02:10.230Z,3.68
2018-12-08T13:07:19.332Z,3.42
2018-12-08T13:12:28.791Z,3.84
2018-12-08T13:17:37.969Z,3.99
2018-12-08T13:22:47.300Z,4.50
2018-12-08T13:27:56.468Z,3.35
2018-12-08T13:33:05.928Z,4.13
2018-12-08T13:38:13.754Z,5.79
2018-12-08T13:43:23.731Z,4.18
2018-12-08T13:48:33.038Z,3.66
2018-12-08T13:53:42.544Z,3.77
2018-12-08T13:58:51.718Z,5.18
2018-12-08T14:04:01.045Z,5.68
2018-12-08T14:09:10.227Z,5.75
2018-12-08T14:14:19.763Z,5.83
2018-12-08T14:19:28.950Z,4.92
2018-12-08T14:24:36.983Z,6.36
2018-12-08T14:29:46.650Z,6.15
2018-12-08T14:34:56.223Z,6.60
2018-12-08T14:40:04.993Z,6.49
2018-12-08T14:45:18.340Z,7.31
2018-12-08T14:50:17.662Z,6.58
2018-12-08T14:55:27.123Z,8.16
2018-12-08T15:00:36.976Z,6.96
2018-12-08T15:05:46.716Z,9.14
2018-12-08T15:10:56.215Z,7.11
2018-12-08T15:16:04.663Z,7.50
2018-12-08T15:21:15.303Z,7.49
2018-12-08T15:26:13.918Z,7.74
2018-12-08T15:31:23.125Z,8.51
2018-12-08T15:36:32.535Z,7.13
2018-12-08T15:41:41.681Z,6.80
2018-12-08T15:46:51.633Z,8.27
2018-12-08T15:52:00.728Z,6.18
2018-12-08T15:57:09.162Z,6.20
2018-12-08T16:02:18.275Z,5.75
2018-12-08T16:07:27.857Z,5.48
2018-12-08T16:12:37.110Z,4.96
2018-12-08T16:17:47.274Z,5.54
2018-12-08T16:22:46.397Z,5.10
2018-12-08T16:27:55.857Z,4.98
2018-12-08T16:33:05.013Z,5.04
2018-12-08T16:38:14.370Z,4.52
2018-12-08T16:43:23.552Z,4.86
2018-12-08T16:48:34.512Z,4.72
2018-12-08T16:53:33.862Z,5.04
2018-12-08T16:58:55.681Z,4.87
2018-12-08T17:03:44.857Z,5.88
2018-12-08T17:08:54.394Z,6.03
2018-12-08T17:14:03.716Z,6.41
2018-12-08T17:19:13.352Z,5.76
2018-12-08T17:24:22.490Z,5.21
2018-12-08T17:29:32.090Z,4.92
2018-12-08T17:34:41.280Z,4.75
2018-12-08T17:39:51.737Z,5.50
2018-12-08T17:44:50.845Z,5.56
2018-12-08T17:50:00.273Z,4.61
2018-12-08T17:55:09.417Z,3.73
2018-12-08T18:00:18.819Z,2.88
2018-12-08T18:05:28.200Z,3.23
2018-12-08T18:10:37.685Z,3.13
2018-12-08T18:15:46.818Z,4.03
2018-12-08T18:20:56.113Z,3.88
2018-12-08T18:26:05.567Z,4.20
2018-12-08T18:31:14.842Z,4.74
2018-12-08T18:36:23.960Z,4.67
2018-12-08T18:41:33.305Z,4.58
2018-12-08T18:46:43.972Z,5.43
2018-12-08T18:51:43.245Z,4.79
2018-12-08T18:56:52.362Z,4.29
2018-12-08T19:02:01.880Z,4.46
2018-12-08T19:07:11.009Z,4.19
2018-12-08T19:12:20.464Z,4.78
2018-12-08T19:17:29.990Z,4.17
2018-12-08T19:22:39.248Z,3.63
2018-12-08T19:27:48.391Z,3.91
2018-12-08T19:32:57.855Z,3.81
2018-12-08T19:38:07.007Z,4.78
2018-12-08T19:43:16.402Z,3.56
2018-12-08T19:48:25.593Z,4.62
2018-12-08T19:53:34.826Z,4.23
2018-12-08T19:58:44.033Z,5.64
2018-12-08T20:03:53.273Z,3.53
2018-12-08T20:09:02.430Z,4.12
2018-12-08T20:14:11.857Z,5.89
2018-12-08T20:19:21.054Z,5.08
2018-12-08T20:24:30.423Z,5.04
2018-12-08T20:29:39.616Z,6.60
2018-12-08T20:34:49.453Z,8.38
2018-12-08T20:39:58.707Z,7.07
2018-12-08T20:45:08.752Z,8.09
2018-12-08T20:50:07.878Z,8.70
2018-12-08T20:55:17.325Z,7.01
2018-12-08T21:00:27.827Z,2.83
2018-12-08T21:05:27.355Z,3.06
2018-12-08T21:10:35.884Z,5.07
2018-12-08T21:15:45.465Z,5.50
2018-12-08T21:20:54.606Z,4.44
2018-12-08T21:26:03.926Z,3.54
2018-12-08T21:31:13.061Z,3.80
2018-12-08T21:36:22.434Z,4.37
2018-12-08T21:41:31.657Z,3.97
2018-12-08T21:46:40.979Z,4.09
2018-12-08T21:51:50.094Z,5.27
2018-12-08T21:56:59.463Z,5.34
2018-12-08T22:02:08.561Z,8.14
2018-12-08T22:07:17.917Z,7.71
2018-12-08T22:12:27.062Z,10.41
2018-12-08T22:17:36.523Z,8.23
2018-12-08T22:22:45.630Z,9.60
2018-12-08T22:27:54.952Z,6.02
2018-12-08T22:33:04.095Z,6.70
2018-12-08T22:38:13.415Z,7.63
2018-12-08T22:43:22.565Z,4.95
2018-12-08T22:48:33.799Z,5.87
2018-12-08T22:53:40.466Z,5.59
2018-12-08T22:58:49.958Z,7.05
2018-12-08T23:03:59.097Z,6.22
2018-12-08T23:09:08.504Z,6.84
2018-12-08T23:14:17.768Z,6.88
2018-12-08T23:19:27.148Z,6.50
2018-12-08T23:24:36.326Z,5.34
2018-12-08T23:29:45.600Z,5.10
2018-12-08T23:34:54.744Z,7.07
2018-12-08T23:40:03.987Z,4.89
2018-12-08T23:45:13.094Z,6.92
2018-12-08T23:50:22.421Z,7.43
2018-12-08T23:55:31.521Z,7.33
